createdAt,value
2019-02-28T00:00:11.207Z,1009.88
2019-02-28T00:01:12.782Z,1009.85
2019-02-28T00:02:11.202Z,1009.82
2019-02-28T00:03:11.184Z,1009.80
2019-02-28T00:04:11.181Z,1009.75
2019-02-28T00:05:11.179Z,1009.73
2019-02-28T00:06:12.668Z,1009.70
2019-02-28T00:07:11.156Z,1009.68
2019-02-28T00:08:11.146Z,1009.65
2019-02-28T00:09:11.144Z,1009.63
2019-02-28T00:10:11.136Z,1009.65
2019-02-28T00:11:11.130Z,1009.64
2019-02-28T00:12:13.530Z,1009.62
2019-02-28T00:13:11.112Z,1009.59
2019-02-28T00:14:11.104Z,1009.63
2019-02-28T00:15:11.100Z,1009.57
2019-02-28T00:16:11.089Z,1009.55
2019-02-28T00:17:11.087Z,1009.53
2019-02-28T00:18:11.075Z,1009.54
2019-02-28T00:19:11.068Z,1009.53
2019-02-28T00:20:11.059Z,1009.51
2019-02-28T00:21:11.056Z,1009.47
2019-02-28T00:22:11.393Z,1009.50
2019-02-28T00:23:11.038Z,1009.46
2019-02-28T00:24:11.034Z,1009.41
2019-02-28T00:25:11.042Z,1009.38
2019-02-28T00:26:11.571Z,1009.40
2019-02-28T00:27:11.010Z,1009.40
2019-02-28T00:28:11.006Z,1009.33
2019-02-28T00:29:10.996Z,1009.33
2019-02-28T00:30:10.986Z,1009.34
2019-02-28T00:31:14.393Z,1009.30
2019-02-28T00:32:10.980Z,1009.30
2019-02-28T00:33:10.966Z,1009.32
2019-02-28T00:34:10.960Z,1009.29
2019-02-28T00:35:13.509Z,1009.27
2019-02-28T00:36:10.943Z,1009.24
2019-02-28T00:37:10.937Z,1009.22
2019-02-28T00:38:10.928Z,1009.17
2019-02-28T00:39:10.931Z,1009.16
2019-02-28T00:40:10.911Z,1009.14
2019-02-28T00:41:10.908Z,1009.17
2019-02-28T00:42:10.899Z,1009.10
2019-02-28T00:43:10.893Z,1009.10
2019-02-28T00:44:10.887Z,1009.14
2019-02-28T00:45:10.876Z,1009.01
2019-02-28T00:46:11.027Z,1009.02
2019-02-28T00:47:10.864Z,1009.02
2019-02-28T00:48:10.855Z,1008.97
2019-02-28T00:49:10.846Z,1008.92
2019-02-28T00:50:10.839Z,1008.92
2019-02-28T00:51:10.833Z,1008.91
2019-02-28T00:52:10.831Z,1008.89
2019-02-28T00:53:10.815Z,1008.87
2019-02-28T00:54:10.811Z,1008.86
2019-02-28T00:55:10.803Z,1008.85
2019-02-28T00:56:10.793Z,1008.85
2019-02-28T00:57:10.790Z,1008.80
2019-02-28T00:58:10.782Z,1008.77
2019-02-28T00:59:10.775Z,1008.82
2019-02-28T01:00:10.764Z,1008.83
2019-02-28T01:01:11.542Z,1008.76
2019-02-28T01:02:10.754Z,1008.76
2019-02-28T01:03:10.745Z,1008.75
2019-02-28T01:04:10.733Z,1008.73
2019-02-28T01:05:10.730Z,1008.75
2019-02-28T01:06:10.721Z,1008.70
2019-02-28T01:07:13.294Z,1008.69
2019-02-28T01:08:10.705Z,1008.69
2019-02-28T01:09:10.697Z,1008.63
2019-02-28T01:10:10.691Z,1008.65
2019-02-28T01:11:13.228Z,1008.65
2019-02-28T01:12:10.681Z,1008.60
2019-02-28T01:13:10.669Z,1008.60
2019-02-28T01:14:10.668Z,1008.56
2019-02-28T01:15:10.773Z,1008.50
2019-02-28T01:16:10.646Z,1008.49
2019-02-28T01:17:10.644Z,1008.50
2019-02-28T01:18:10.632Z,1008.52
2019-02-28T01:19:10.626Z,1008.50
2019-02-28T01:20:14.899Z,1008.50
2019-02-28T01:21:10.610Z,1008.49
2019-02-28T01:22:10.603Z,1008.44
2019-02-28T01:23:10.597Z,1008.44
2019-02-28T01:24:10.591Z,1008.44
2019-02-28T01:25:10.586Z,1008.45
2019-02-28T01:26:11.755Z,1008.39
2019-02-28T01:27:10.565Z,1008.41
2019-02-28T01:28:10.556Z,1008.33
2019-02-28T01:29:10.550Z,1008.26
2019-02-28T01:30:10.542Z,1008.26
2019-02-28T01:31:11.663Z,1008.22
2019-02-28T01:32:15.316Z,1008.20
2019-02-28T01:33:10.519Z,1008.19
2019-02-28T01:34:10.517Z,1008.24
2019-02-28T01:35:10.505Z,1008.24
2019-02-28T01:36:12.258Z,1008.21
2019-02-28T01:37:10.490Z,1008.23
2019-02-28T01:38:10.485Z,1008.19
2019-02-28T01:39:10.475Z,1008.20
2019-02-28T01:40:10.467Z,1008.14
2019-02-28T01:41:11.196Z,1008.10
2019-02-28T01:42:10.453Z,1008.10
2019-02-28T01:43:10.447Z,1008.10
2019-02-28T01:44:10.441Z,1008.11
2019-02-28T01:45:11.006Z,1008.16
2019-02-28T01:46:10.433Z,1008.20
2019-02-28T01:47:10.415Z,1008.17
2019-02-28T01:48:10.410Z,1008.12
2019-02-28T01:49:10.399Z,1008.07
2019-02-28T01:50:10.396Z,1008.09
2019-02-28T01:51:10.386Z,1008.12
2019-02-28T01:52:10.809Z,1008.08
2019-02-28T01:53:10.369Z,1008.09
2019-02-28T01:54:10.365Z,1008.05
2019-02-28T01:55:10.356Z,1008.01
2019-02-28T01:56:10.349Z,1008.02
2019-02-28T01:57:10.339Z,1008.00
2019-02-28T01:58:10.338Z,1007.95
2019-02-28T01:59:10.326Z,1007.93
2019-02-28T02:00:10.319Z,1007.93
2019-02-28T02:01:10.306Z,1007.91
2019-02-28T02:02:10.302Z,1007.89
2019-02-28T02:03:10.295Z,1007.80
2019-02-28T02:04:12.534Z,1007.83
2019-02-28T02:05:10.280Z,1007.85
2019-02-28T02:06:10.272Z,1007.79
2019-02-28T02:07:10.266Z,1007.78
2019-02-28T02:08:10.256Z,1007.79
2019-02-28T02:09:11.067Z,1007.76
2019-02-28T02:10:10.235Z,1007.81
2019-02-28T02:11:10.233Z,1007.82
2019-02-28T02:12:10.228Z,1007.84
2019-02-28T02:13:10.224Z,1007.85
2019-02-28T02:14:11.038Z,1007.83
2019-02-28T02:15:10.203Z,1007.79
2019-02-28T02:16:10.198Z,1007.81
2019-02-28T02:17:10.191Z,1007.79
2019-02-28T02:18:10.184Z,1007.75
2019-02-28T02:19:10.175Z,1007.70
2019-02-28T02:20:10.167Z,1007.71
2019-02-28T02:21:10.163Z,1007.69
2019-02-28T02:22:10.260Z,1007.69
2019-02-28T02:23:10.144Z,1007.71
2019-02-28T02:24:10.139Z,1007.73
2019-02-28T02:25:10.133Z,1007.79
2019-02-28T02:26:11.282Z,1007.74
2019-02-28T02:27:10.120Z,1007.70
2019-02-28T02:28:10.102Z,1007.72
2019-02-28T02:29:10.104Z,1007.68
2019-02-28T02:30:15.261Z,1007.70
2019-02-28T02:31:10.084Z,1007.65
2019-02-28T02:32:10.075Z,1007.69
2019-02-28T02:33:13.683Z,1007.65
2019-02-28T02:34:10.062Z,1007.69
2019-02-28T02:35:10.054Z,1007.60
2019-02-28T02:36:10.052Z,1007.59
2019-02-28T02:37:10.039Z,1007.57
2019-02-28T02:38:10.031Z,1007.55
2019-02-28T02:39:16.396Z,1007.48
2019-02-28T02:40:10.016Z,1007.48
2019-02-28T02:41:10.009Z,1007.42
2019-02-28T02:42:11.396Z,1007.45
2019-02-28T02:43:09.993Z,1007.44
2019-02-28T02:44:09.987Z,1007.42
2019-02-28T02:45:09.980Z,1007.33
2019-02-28T02:46:09.970Z,1007.32
2019-02-28T02:47:09.963Z,1007.33
2019-02-28T02:48:09.958Z,1007.32
2019-02-28T02:49:09.944Z,1007.34
2019-02-28T02:50:09.946Z,1007.31
2019-02-28T02:51:11.118Z,1007.25
2019-02-28T02:52:09.925Z,1007.23
2019-02-28T02:53:09.911Z,1007.23
2019-02-28T02:54:09.910Z,1007.25
2019-02-28T02:55:09.901Z,1007.27
2019-02-28T02:56:09.894Z,1007.26
2019-02-28T02:57:13.873Z,1007.22
2019-02-28T02:58:09.881Z,1007.23
2019-02-28T02:59:09.871Z,1007.23
2019-02-28T03:00:13.263Z,1007.22
2019-02-28T03:01:09.857Z,1007.22
2019-02-28T03:02:09.849Z,1007.20
2019-02-28T03:03:09.843Z,1007.18
2019-02-28T03:04:09.835Z,1007.16
2019-02-28T03:05:09.830Z,1007.16
2019-02-28T03:06:13.866Z,1007.12
2019-02-28T03:07:09.812Z,1007.12
2019-02-28T03:08:09.810Z,1007.09
2019-02-28T03:09:11.063Z,1007.09
2019-02-28T03:10:09.782Z,1007.04
2019-02-28T03:11:09.779Z,1007.05
2019-02-28T03:12:09.780Z,1007.05
2019-02-28T03:13:09.762Z,1007.12
2019-02-28T03:14:09.763Z,1007.10
2019-02-28T03:15:09.748Z,1007.07
2019-02-28T03:16:09.749Z,1007.10
2019-02-28T03:17:11.513Z,1007.11
2019-02-28T03:18:09.726Z,1007.13
2019-02-28T03:19:09.716Z,1007.08
2019-02-28T03:20:09.710Z,1007.08
2019-02-28T03:21:09.703Z,1007.07
2019-02-28T03:22:09.694Z,1007.07
2019-02-28T03:23:09.690Z,1007.09
2019-02-28T03:24:14.846Z,1007.06
2019-02-28T03:25:09.674Z,1007.03
2019-02-28T03:26:09.664Z,1007.02
2019-02-28T03:27:09.659Z,1007.06
2019-02-28T03:28:09.648Z,1007.08
2019-02-28T03:29:09.646Z,1007.06
2019-02-28T03:30:09.639Z,1007.10
2019-02-28T03:31:14.142Z,1007.07
2019-02-28T03:32:09.612Z,1007.04
2019-02-28T03:33:23.932Z,1007.08
2019-02-28T03:34:13.265Z,1007.05
2019-02-28T03:35:09.591Z,1007.07
2019-02-28T03:36:09.585Z,1007.03
2019-02-28T03:37:09.575Z,1007.05
2019-02-28T03:38:11.465Z,1007.03
2019-02-28T03:39:09.560Z,1006.96
2019-02-28T03:40:09.578Z,1006.97
2019-02-28T03:41:16.102Z,1006.98
2019-02-28T03:42:09.541Z,1006.91
2019-02-28T03:43:09.527Z,1006.90
2019-02-28T03:44:09.527Z,1006.89
2019-02-28T03:45:09.514Z,1006.87
2019-02-28T03:46:10.360Z,1006.86
2019-02-28T03:47:09.519Z,1006.81
2019-02-28T03:48:09.497Z,1006.84
2019-02-28T03:49:11.393Z,1006.85
2019-02-28T03:50:09.480Z,1006.85
2019-02-28T03:51:09.464Z,1006.85
2019-02-28T03:52:09.457Z,1006.83
2019-02-28T03:53:09.448Z,1006.82
2019-02-28T03:54:09.446Z,1006.79
2019-02-28T03:55:09.431Z,1006.79
2019-02-28T03:56:14.329Z,1006.74
2019-02-28T03:57:09.423Z,1006.75
2019-02-28T03:58:09.411Z,1006.76
2019-02-28T03:59:09.403Z,1006.69
2019-02-28T04:00:09.393Z,1006.69
2019-02-28T04:01:10.377Z,1006.69
2019-02-28T04:02:09.378Z,1006.72
2019-02-28T04:03:09.372Z,1006.73
2019-02-28T04:04:12.250Z,1006.75
2019-02-28T04:05:09.360Z,1006.72
2019-02-28T04:06:09.348Z,1006.70
2019-02-28T04:07:15.709Z,1006.71
2019-02-28T04:08:09.321Z,1006.66
2019-02-28T04:09:09.325Z,1006.65
2019-02-28T04:10:09.312Z,1006.65
2019-02-28T04:11:09.311Z,1006.58
2019-02-28T04:12:09.324Z,1006.53
2019-02-28T04:13:09.289Z,1006.50
2019-02-28T04:14:09.293Z,1006.50
2019-02-28T04:15:10.212Z,1006.44
2019-02-28T04:16:10.068Z,1006.43
2019-02-28T04:17:09.264Z,1006.43
2019-02-28T04:18:09.242Z,1006.42
2019-02-28T04:19:09.240Z,1006.41
2019-02-28T04:20:09.233Z,1006.42
2019-02-28T04:21:10.746Z,1006.41
2019-02-28T04:22:09.217Z,1006.39
2019-02-28T04:23:09.207Z,1006.38
2019-02-28T04:24:13.931Z,1006.36
2019-02-28T04:25:09.201Z,1006.34
2019-02-28T04:26:09.188Z,1006.36
2019-02-28T04:27:09.177Z,1006.38
2019-02-28T04:28:09.168Z,1006.36
2019-02-28T04:29:09.173Z,1006.35
2019-02-28T04:30:09.149Z,1006.34
2019-02-28T04:31:09.152Z,1006.33
2019-02-28T04:32:09.135Z,1006.29
2019-02-28T04:33:09.128Z,1006.32
2019-02-28T04:34:13.068Z,1006.28
2019-02-28T04:35:09.111Z,1006.29
2019-02-28T04:36:09.104Z,1006.25
2019-02-28T04:37:09.719Z,1006.23
2019-02-28T04:38:09.093Z,1006.23
2019-02-28T04:39:09.073Z,1006.14
2019-02-28T04:40:09.071Z,1006.11
2019-02-28T04:41:09.065Z,1006.06
2019-02-28T04:42:09.053Z,1006.04
2019-02-28T04:43:10.103Z,1006.12
2019-02-28T04:44:09.050Z,1006.15
2019-02-28T04:45:09.029Z,1006.11
2019-02-28T04:46:09.023Z,1006.13
2019-02-28T04:47:09.020Z,1006.10
2019-02-28T04:48:13.610Z,1006.10
2019-02-28T04:49:08.994Z,1006.15
2019-02-28T04:50:08.990Z,1006.14
2019-02-28T04:51:08.981Z,1006.15
2019-02-28T04:52:11.837Z,1006.13
2019-02-28T04:53:08.986Z,1006.13
2019-02-28T04:54:08.955Z,1006.12
2019-02-28T04:55:08.948Z,1006.11
2019-02-28T04:56:11.536Z,1006.08
2019-02-28T04:57:08.933Z,1006.09
2019-02-28T04:58:08.923Z,1006.05
2019-02-28T04:59:08.915Z,1006.05
2019-02-28T05:00:08.907Z,1005.99
2019-02-28T05:01:09.231Z,1005.89
2019-02-28T05:02:08.891Z,1005.92
2019-02-28T05:03:08.882Z,1005.95
2019-02-28T05:04:08.872Z,1005.90
2019-02-28T05:05:12.173Z,1005.87
2019-02-28T05:06:08.870Z,1005.89
2019-02-28T05:07:08.849Z,1005.90
2019-02-28T05:08:08.840Z,1005.89
2019-02-28T05:09:10.736Z,1005.95
2019-02-28T05:10:08.824Z,1005.91
2019-02-28T05:11:08.818Z,1005.90
2019-02-28T05:12:08.806Z,1005.91
2019-02-28T05:13:11.395Z,1005.88
2019-02-28T05:14:08.790Z,1005.93
2019-02-28T05:15:08.782Z,1005.91
2019-02-28T05:16:09.305Z,1005.93
2019-02-28T05:17:08.765Z,1005.97
2019-02-28T05:18:08.760Z,1005.98
2019-02-28T05:19:08.751Z,1005.99
2019-02-28T05:20:11.033Z,1006.01
2019-02-28T05:21:08.733Z,1006.03
2019-02-28T05:22:08.725Z,1005.98
2019-02-28T05:23:08.721Z,1005.94
2019-02-28T05:24:08.743Z,1005.94
2019-02-28T05:25:08.702Z,1005.87
2019-02-28T05:26:08.691Z,1005.81
2019-02-28T05:27:08.683Z,1005.81
2019-02-28T05:28:08.674Z,1005.80
2019-02-28T05:29:11.896Z,1005.79
2019-02-28T05:30:08.657Z,1005.84
2019-02-28T05:31:08.650Z,1005.81
2019-02-28T05:32:08.646Z,1005.78
2019-02-28T05:33:08.633Z,1005.75
2019-02-28T05:34:08.628Z,1005.73
2019-02-28T05:35:08.618Z,1005.70
2019-02-28T05:36:08.609Z,1005.67
2019-02-28T05:37:12.131Z,1005.64
2019-02-28T05:38:08.592Z,1005.62
2019-02-28T05:39:08.583Z,1005.54
2019-02-28T05:40:08.574Z,1005.54
2019-02-28T05:41:08.566Z,1005.63
2019-02-28T05:42:08.562Z,1005.61
2019-02-28T05:43:08.549Z,1005.63
2019-02-28T05:44:08.541Z,1005.58
2019-02-28T05:45:11.421Z,1005.66
2019-02-28T05:46:08.528Z,1005.66
2019-02-28T05:47:08.518Z,1005.62
2019-02-28T05:48:08.507Z,1005.62
2019-02-28T05:49:08.982Z,1005.58
2019-02-28T05:50:08.491Z,1005.61
2019-02-28T05:51:08.482Z,1005.61
2019-02-28T05:52:08.477Z,1005.64
2019-02-28T05:53:09.334Z,1005.72
2019-02-28T05:54:08.457Z,1005.74
2019-02-28T05:55:08.449Z,1005.71
2019-02-28T05:56:08.444Z,1005.72
2019-02-28T05:57:08.940Z,1005.73
2019-02-28T05:58:08.423Z,1005.76
2019-02-28T05:59:08.417Z,1005.76
2019-02-28T06:00:08.409Z,1005.81
2019-02-28T06:01:08.808Z,1005.75
2019-02-28T06:02:08.392Z,1005.79
2019-02-28T06:03:08.383Z,1005.78
2019-02-28T06:04:08.373Z,1005.81
2019-02-28T06:05:11.650Z,1005.80
2019-02-28T06:06:08.357Z,1005.82
2019-02-28T06:07:09.428Z,1005.83
2019-02-28T06:08:08.341Z,1005.87
2019-02-28T06:09:10.323Z,1005.88
2019-02-28T06:10:08.326Z,1005.91
2019-02-28T06:11:08.321Z,1005.93
2019-02-28T06:12:09.556Z,1005.94
2019-02-28T06:13:08.300Z,1005.93
2019-02-28T06:14:08.296Z,1005.97
2019-02-28T06:15:08.285Z,1005.98
2019-02-28T06:16:11.193Z,1005.97
2019-02-28T06:17:08.269Z,1005.99
2019-02-28T06:18:08.259Z,1005.92
2019-02-28T06:19:09.088Z,1005.98
2019-02-28T06:20:08.246Z,1005.95
2019-02-28T06:21:10.120Z,1005.98
2019-02-28T06:22:08.224Z,1005.93
2019-02-28T06:23:09.464Z,1005.97
2019-02-28T06:24:08.207Z,1005.96
2019-02-28T06:25:08.199Z,1005.98
2019-02-28T06:26:08.190Z,1005.98
2019-02-28T06:27:08.186Z,1006.00
2019-02-28T06:28:08.213Z,1006.04
2019-02-28T06:29:08.168Z,1006.05
2019-02-28T06:30:08.842Z,1006.08
2019-02-28T06:31:08.149Z,1006.07
2019-02-28T06:32:08.147Z,1006.03
2019-02-28T06:33:08.132Z,1006.03
2019-02-28T06:34:08.615Z,1006.01
2019-02-28T06:35:08.116Z,1006.04
2019-02-28T06:36:08.113Z,1006.07
2019-02-28T06:37:08.102Z,1006.07
2019-02-28T06:38:08.093Z,1006.10
2019-02-28T06:39:08.090Z,1006.06
2019-02-28T06:40:08.074Z,1006.07
2019-02-28T06:41:08.676Z,1006.09
2019-02-28T06:42:08.057Z,1006.09
2019-02-28T06:43:08.200Z,1006.09
2019-02-28T06:44:08.043Z,1006.09
2019-02-28T06:45:08.036Z,1006.04
2019-02-28T06:46:08.714Z,1006.01
2019-02-28T06:47:08.017Z,1005.99
2019-02-28T06:48:08.013Z,1006.01
2019-02-28T06:49:08.003Z,1006.05
2019-02-28T06:50:07.994Z,1006.08
2019-02-28T06:51:07.984Z,1006.08
2019-02-28T06:52:07.982Z,1006.08
2019-02-28T06:53:07.969Z,1006.02
2019-02-28T06:54:08.777Z,1005.98
2019-02-28T06:55:07.954Z,1005.95
2019-02-28T06:56:07.945Z,1005.98
2019-02-28T06:57:07.935Z,1005.95
2019-02-28T06:58:07.928Z,1005.94
2019-02-28T06:59:07.921Z,1005.92
2019-02-28T07:00:10.376Z,1005.87
2019-02-28T07:01:07.909Z,1005.85
2019-02-28T07:02:08.944Z,1005.82
2019-02-28T07:03:07.890Z,1005.86
2019-02-28T07:04:07.878Z,1005.78
2019-02-28T07:05:07.872Z,1005.76
2019-02-28T07:06:07.866Z,1005.71
2019-02-28T07:07:10.252Z,1005.68
2019-02-28T07:08:07.845Z,1005.67
2019-02-28T07:09:07.841Z,1005.71
2019-02-28T07:10:09.700Z,1005.65
2019-02-28T07:11:07.825Z,1005.72
2019-02-28T07:12:07.815Z,1005.75
2019-02-28T07:13:07.809Z,1005.74
2019-02-28T07:14:12.956Z,1005.76
2019-02-28T07:15:07.790Z,1005.75
2019-02-28T07:16:07.794Z,1005.67
2019-02-28T07:17:10.740Z,1005.69
2019-02-28T07:18:07.767Z,1005.70
2019-02-28T07:19:07.757Z,1005.72
2019-02-28T07:20:09.595Z,1005.61
2019-02-28T07:21:08.605Z,1005.66
2019-02-28T07:22:07.734Z,1005.68
2019-02-28T07:23:07.727Z,1005.64
2019-02-28T07:24:07.725Z,1005.71
2019-02-28T07:25:09.418Z,1005.70
2019-02-28T07:26:07.702Z,1005.78
2019-02-28T07:27:07.696Z,1005.77
2019-02-28T07:28:07.693Z,1005.79
2019-02-28T07:29:11.060Z,1005.87
2019-02-28T07:30:07.674Z,1005.83
2019-02-28T07:31:07.664Z,1005.86
2019-02-28T07:32:07.655Z,1005.90
2019-02-28T07:33:10.579Z,1005.89
2019-02-28T07:34:07.639Z,1005.85
2019-02-28T07:35:07.630Z,1005.86
2019-02-28T07:36:09.595Z,1005.89
2019-02-28T07:37:07.617Z,1005.91
2019-02-28T07:38:07.609Z,1005.96
2019-02-28T07:39:07.608Z,1006.02
2019-02-28T07:40:07.589Z,1006.01
2019-02-28T07:41:07.589Z,1006.04
2019-02-28T07:42:07.577Z,1006.05
2019-02-28T07:43:12.112Z,1006.08
2019-02-28T07:44:07.560Z,1006.03
2019-02-28T07:45:07.552Z,1006.01
2019-02-28T07:46:08.734Z,1005.93
2019-02-28T07:47:07.539Z,1005.99
2019-02-28T07:48:07.529Z,1006.00
2019-02-28T07:49:07.517Z,1006.04
2019-02-28T07:50:07.716Z,1006.12
2019-02-28T07:51:07.508Z,1006.10
2019-02-28T07:52:07.498Z,1006.22
2019-02-28T07:53:08.833Z,1006.22
2019-02-28T07:54:07.482Z,1006.24
2019-02-28T07:55:07.476Z,1006.26
2019-02-28T07:56:07.900Z,1006.24
2019-02-28T07:57:07.470Z,1006.25
2019-02-28T07:58:07.456Z,1006.28
2019-02-28T07:59:07.463Z,1006.30
2019-02-28T08:00:07.436Z,1006.29
2019-02-28T08:01:07.430Z,1006.32
2019-02-28T08:02:07.428Z,1006.40
2019-02-28T08:03:07.413Z,1006.38
2019-02-28T08:04:07.406Z,1006.32
2019-02-28T08:05:07.416Z,1006.30
2019-02-28T08:06:07.392Z,1006.25
2019-02-28T08:07:07.385Z,1006.26
2019-02-28T08:08:07.381Z,1006.27
2019-02-28T08:09:07.372Z,1006.28
2019-02-28T08:10:07.362Z,1006.26
2019-02-28T08:11:07.406Z,1006.28
2019-02-28T08:12:07.345Z,1006.34
2019-02-28T08:13:07.340Z,1006.34
2019-02-28T08:14:09.204Z,1006.26
2019-02-28T08:15:07.323Z,1006.23
2019-02-28T08:16:07.315Z,1006.26
2019-02-28T08:17:08.945Z,1006.26
2019-02-28T08:18:07.298Z,1006.24
2019-02-28T08:19:07.297Z,1006.24
2019-02-28T08:20:07.285Z,1006.26
2019-02-28T08:21:08.739Z,1006.25
2019-02-28T08:22:07.271Z,1006.24
2019-02-28T08:23:07.266Z,1006.26
2019-02-28T08:24:07.260Z,1006.29
2019-02-28T08:25:08.600Z,1006.24
2019-02-28T08:26:07.252Z,1006.29
2019-02-28T08:27:07.233Z,1006.21
2019-02-28T08:28:07.227Z,1006.21
2019-02-28T08:29:10.117Z,1006.16
2019-02-28T08:30:07.209Z,1006.22
2019-02-28T08:31:07.202Z,1006.21
2019-02-28T08:32:08.227Z,1006.09
2019-02-28T08:33:07.186Z,1006.22
2019-02-28T08:34:07.182Z,1006.21
2019-02-28T08:35:07.174Z,1006.14
2019-02-28T08:36:11.402Z,1006.14
2019-02-28T08:37:07.157Z,1006.21
2019-02-28T08:38:07.155Z,1006.23
2019-02-28T08:39:08.855Z,1006.29
2019-02-28T08:40:07.135Z,1006.32
2019-02-28T08:41:07.128Z,1006.25
2019-02-28T08:42:07.120Z,1006.25
2019-02-28T08:43:07.124Z,1006.17
2019-02-28T08:44:07.107Z,1006.18
2019-02-28T08:45:07.099Z,1006.19
2019-02-28T08:46:10.782Z,1006.16
2019-02-28T08:47:07.083Z,1006.18
2019-02-28T08:48:07.076Z,1006.11
2019-02-28T08:49:07.390Z,1006.15
2019-02-28T08:50:07.062Z,1006.13
2019-02-28T08:51:07.058Z,1006.11
2019-02-28T08:52:07.051Z,1006.18
2019-02-28T08:53:07.043Z,1006.17
2019-02-28T08:54:07.034Z,1006.16
2019-02-28T08:55:09.181Z,1006.21
2019-02-28T08:56:07.019Z,1006.22
2019-02-28T08:57:07.010Z,1006.18
2019-02-28T08:58:07.008Z,1006.13
2019-02-28T08:59:11.775Z,1006.11
2019-02-28T09:00:06.989Z,1006.09
2019-02-28T09:01:06.982Z,1006.13
2019-02-28T09:02:06.977Z,1006.03
2019-02-28T09:03:06.969Z,1005.92
2019-02-28T09:04:06.961Z,1005.93
2019-02-28T09:05:06.954Z,1006.05
2019-02-28T09:06:07.506Z,1006.08
2019-02-28T09:07:06.941Z,1006.13
2019-02-28T09:08:06.933Z,1006.11
2019-02-28T09:09:06.923Z,1006.12
2019-02-28T09:10:11.720Z,1006.12
2019-02-28T09:11:06.913Z,1006.15
2019-02-28T09:12:06.906Z,1006.15
2019-02-28T09:13:08.721Z,1006.12
2019-02-28T09:14:06.891Z,1006.19
2019-02-28T09:15:06.884Z,1006.13
2019-02-28T09:16:06.877Z,1006.11
2019-02-28T09:17:06.869Z,1006.09
2019-02-28T09:18:07.403Z,1006.05
2019-02-28T09:19:06.856Z,1006.02
2019-02-28T09:20:07.531Z,1006.01
2019-02-28T09:21:06.844Z,1006.05
2019-02-28T09:22:06.837Z,1006.06
2019-02-28T09:23:06.828Z,1006.07
2019-02-28T09:24:09.460Z,1006.12
2019-02-28T09:25:06.819Z,1006.14
2019-02-28T09:26:06.810Z,1006.11
2019-02-28T09:27:06.804Z,1006.13
2019-02-28T09:28:06.794Z,1006.07
2019-02-28T09:29:06.790Z,1006.04
2019-02-28T09:30:06.782Z,1006.04
2019-02-28T09:31:06.779Z,1006.02
2019-02-28T09:32:06.768Z,1006.08
2019-02-28T09:33:06.764Z,1006.11
2019-02-28T09:34:06.755Z,1006.09
2019-02-28T09:35:12.256Z,1006.10
2019-02-28T09:36:06.743Z,1006.03
2019-02-28T09:37:06.735Z,1006.08
2019-02-28T09:38:13.008Z,1006.11
2019-02-28T09:39:06.723Z,1006.05
2019-02-28T09:40:06.720Z,1006.04
2019-02-28T09:41:06.710Z,1006.05
2019-02-28T09:42:06.706Z,1006.15
2019-02-28T09:43:06.697Z,1006.13
2019-02-28T09:44:07.166Z,1006.20
2019-02-28T09:45:07.668Z,1006.21
2019-02-28T09:46:06.675Z,1006.22
2019-02-28T09:47:06.671Z,1006.28
2019-02-28T09:48:06.666Z,1006.26
2019-02-28T09:49:11.981Z,1006.27
2019-02-28T09:50:06.653Z,1006.23
2019-02-28T09:51:06.649Z,1006.26
2019-02-28T09:52:07.324Z,1006.25
2019-02-28T09:53:06.632Z,1006.24
2019-02-28T09:54:06.627Z,1006.29
2019-02-28T09:55:06.626Z,1006.23
2019-02-28T09:56:09.281Z,1006.22
2019-02-28T09:57:06.607Z,1006.24
2019-02-28T09:58:06.605Z,1006.26
2019-02-28T09:59:06.596Z,1006.30
2019-02-28T10:00:11.627Z,1006.33
2019-02-28T10:01:06.583Z,1006.33
2019-02-28T10:02:08.413Z,1006.33
2019-02-28T10:03:06.895Z,1006.23
2019-02-28T10:04:06.564Z,1006.25
2019-02-28T10:05:07.560Z,1006.23
2019-02-28T10:06:06.556Z,1006.29
2019-02-28T10:07:06.548Z,1006.29
2019-02-28T10:08:07.177Z,1006.33
2019-02-28T10:09:08.771Z,1006.27
2019-02-28T10:10:06.531Z,1006.32
2019-02-28T10:11:06.525Z,1006.36
2019-02-28T10:12:07.823Z,1006.40
2019-02-28T10:13:06.512Z,1006.35
2019-02-28T10:14:06.509Z,1006.35
2019-02-28T10:15:07.467Z,1006.38
2019-02-28T10:16:06.494Z,1006.37
2019-02-28T10:17:06.486Z,1006.45
2019-02-28T10:18:06.509Z,1006.46
2019-02-28T10:19:06.474Z,1006.41
2019-02-28T10:20:06.468Z,1006.44
2019-02-28T10:21:06.461Z,1006.38
2019-02-28T10:22:06.458Z,1006.33
2019-02-28T10:23:06.450Z,1006.25
2019-02-28T10:24:06.441Z,1006.32
2019-02-28T10:25:06.574Z,1006.28
2019-02-28T10:26:06.428Z,1006.31
2019-02-28T10:27:06.424Z,1006.39
2019-02-28T10:28:06.418Z,1006.35
2019-02-28T10:29:07.572Z,1006.36
2019-02-28T10:30:06.404Z,1006.23
2019-02-28T10:31:06.422Z,1006.36
2019-02-28T10:32:08.956Z,1006.25
2019-02-28T10:33:06.388Z,1006.31
2019-02-28T10:34:06.388Z,1006.31
2019-02-28T10:35:06.379Z,1006.34
2019-02-28T10:36:09.239Z,1006.34
2019-02-28T10:37:06.363Z,1006.27
2019-02-28T10:38:06.358Z,1006.23
2019-02-28T10:39:09.047Z,1006.25
2019-02-28T10:40:06.345Z,1006.30
2019-02-28T10:41:06.340Z,1006.25
2019-02-28T10:42:06.334Z,1006.25
2019-02-28T10:43:06.329Z,1006.36
2019-02-28T10:44:06.319Z,1006.35
2019-02-28T10:45:07.011Z,1006.32
2019-02-28T10:46:06.310Z,1006.18
2019-02-28T10:47:06.301Z,1006.32
2019-02-28T10:48:06.297Z,1006.33
2019-02-28T10:49:06.291Z,1006.33
2019-02-28T10:50:06.286Z,1006.30
2019-02-28T10:51:13.191Z,1006.26
2019-02-28T10:52:06.273Z,1006.20
2019-02-28T10:53:06.341Z,1006.25
2019-02-28T10:54:06.262Z,1006.22
2019-02-28T10:55:06.256Z,1006.13
2019-02-28T10:56:06.249Z,1006.18
2019-02-28T10:57:07.076Z,1006.23
2019-02-28T10:58:06.238Z,1006.22
2019-02-28T10:59:06.233Z,1006.24
2019-02-28T11:00:06.227Z,1006.21
2019-02-28T11:01:08.724Z,1006.16
2019-02-28T11:02:06.213Z,1006.17
2019-02-28T11:03:06.210Z,1006.10
2019-02-28T11:04:07.482Z,1006.12
2019-02-28T11:05:07.936Z,1006.14
2019-02-28T11:06:06.191Z,1006.10
2019-02-28T11:07:06.185Z,1006.18
2019-02-28T11:08:06.178Z,1006.15
2019-02-28T11:09:06.174Z,1006.28
2019-02-28T11:10:06.167Z,1006.29
2019-02-28T11:11:07.401Z,1006.22
2019-02-28T11:12:06.155Z,1006.20
2019-02-28T11:13:06.153Z,1006.24
2019-02-28T11:14:06.147Z,1006.19
2019-02-28T11:15:06.139Z,1006.20
2019-02-28T11:16:06.132Z,1006.27
2019-02-28T11:17:11.392Z,1006.27
2019-02-28T11:18:09.766Z,1006.24
2019-02-28T11:19:06.117Z,1006.24
2019-02-28T11:20:06.113Z,1006.25
2019-02-28T11:21:06.104Z,1006.25
2019-02-28T11:22:06.104Z,1006.24
2019-02-28T11:23:07.615Z,1006.23
2019-02-28T11:24:06.108Z,1006.23
2019-02-28T11:25:06.079Z,1006.24
2019-02-28T11:26:06.401Z,1006.28
2019-02-28T11:27:06.071Z,1006.29
2019-02-28T11:28:06.066Z,1006.27
2019-02-28T11:29:06.063Z,1006.28
2019-02-28T11:30:07.386Z,1006.18
2019-02-28T11:31:06.053Z,1006.21
2019-02-28T11:32:06.046Z,1006.21
2019-02-28T11:33:06.039Z,1006.23
2019-02-28T11:34:06.030Z,1006.22
2019-02-28T11:35:06.026Z,1006.20
2019-02-28T11:36:07.414Z,1006.32
2019-02-28T11:37:08.983Z,1006.23
2019-02-28T11:38:06.008Z,1006.18
2019-02-28T11:39:06.006Z,1006.25
2019-02-28T11:40:08.548Z,1006.24
2019-02-28T11:41:05.993Z,1006.23
2019-02-28T11:42:05.987Z,1006.28
2019-02-28T11:43:05.987Z,1006.23
2019-02-28T11:44:05.977Z,1006.25
2019-02-28T11:45:05.972Z,1006.30
2019-02-28T11:46:05.968Z,1006.33
2019-02-28T11:47:08.435Z,1006.26
2019-02-28T11:48:05.956Z,1006.34
2019-02-28T11:49:05.949Z,1006.33
2019-02-28T11:50:07.769Z,1006.34
2019-02-28T11:51:05.939Z,1006.24
2019-02-28T11:52:05.935Z,1006.30
2019-02-28T11:53:06.085Z,1006.25
2019-02-28T11:54:05.922Z,1006.27
2019-02-28T11:55:05.918Z,1006.27
2019-02-28T11:56:05.912Z,1006.25
2019-02-28T11:57:06.896Z,1006.18
2019-02-28T11:58:05.902Z,1006.28
2019-02-28T11:59:05.898Z,1006.27
2019-02-28T12:00:05.891Z,1006.19
2019-02-28T12:01:10.025Z,1006.25
2019-02-28T12:02:05.881Z,1006.16
2019-02-28T12:03:06.023Z,1006.15
2019-02-28T12:04:05.867Z,1006.13
2019-02-28T12:05:05.867Z,1006.21